Wapping, Connecticut
Current Conditions -  °F | °C
As of 9:53 AM on Wednesday 22 Oct 2014 (Local Time) from KHFD Reporting Station
Light Rain Light Rain  
Wind Chill: 12°   Ceiling: 1700
Heat Index: 12°   Visibility: 7mi
Dew Point:   Wind: 12mph
Humidity: 86%   Direction: 10°N
Pressure: 29.99"   Gusts: 20mph
Location:  41.8353°N, 72.5722°W
Report Text: KHFD 221353Z 01010G17KT 7SM -RA OVC017 12/09 A2999 RMK AO2 RAB37 SLP156 P0000 T01170094
Loading
Personal Weather Stations






























Interactive Weather Map
Tropical Storm Tracking
New forecast layout! Learn more

10-Day Weather Forecast

Advertisements
Track Severe Weather on mobile